Time;durP1;ratioP1;P1;durP2;ratioP2;P2;SDS_P1;SDS_P2;PMS_P1;PMS_P2;Temp;Humidity;BMP_temperature;BMP_pressure;BME280_temperature;BME280_humidity;BME280_pressure;Samples;Min_cycle;Max_cycle;Signal;HPM_P1;HPM_P2
2022/08/13 00:02:06;;;;;;;5.28;0.75;;;23.90;65.40;;;;;;4977345;28;20050;-71
2022/08/13 00:04:32;;;;;;;5.35;1.00;;;23.80;65.80;;;;;;4981042;28;20049;-70
2022/08/13 00:09:26;;;;;;;1.13;0.65;;;23.70;65.40;;;;;;4978299;28;20117;-71
2022/08/13 00:14:40;;;;;;;5.88;1.05;;;23.60;66.20;;;;;;4975758;28;20057;-72
2022/08/13 00:17:09;;;;;;;1.88;0.90;;;23.50;67.40;;;;;;5007114;28;20041;-71
2022/08/13 00:19:40;;;;;;;5.75;0.90;;;23.40;66.50;;;;;;4977084;28;20057;-69
2022/08/13 00:22:08;;;;;;;2.90;0.90;;;23.40;67.40;;;;;;4976091;28;20039;-70
2022/08/13 00:24:34;;;;;;;2.85;0.80;;;23.40;66.40;;;;;;4976395;28;20038;-70
2022/08/13 00:27:02;;;;;;;1.30;0.50;;;23.30;66.70;;;;;;4984674;28;20057;-71
2022/08/13 00:29:27;;;;;;;2.70;0.65;;;23.30;66.80;;;;;;4988892;28;20034;-71
2022/08/13 00:31:54;;;;;;;3.70;0.82;;;23.30;66.30;;;;;;4986169;28;20046;-67
2022/08/13 00:34:20;;;;;;;1.02;0.50;;;23.30;66.40;;;;;;4980182;28;20133;-71
2022/08/13 00:36:47;;;;;;;4.18;0.73;;;23.20;66.60;;;;;;4982308;28;20130;-69
2022/08/13 00:39:12;;;;;;;1.27;0.75;;;23.30;67.20;;;;;;4978993;28;20043;-71
2022/08/13 00:41:43;;;;;;;1.17;0.50;;;23.20;68.20;;;;;;4975764;28;20045;-71
2022/08/13 00:44:10;;;;;;;;;;;23.10;67.40;;;;;;4978580;28;20039;-69
2022/08/13 00:46:37;;;;;;;3.65;0.77;;;23.10;67.10;;;;;;4975705;28;19917;-71
2022/08/13 00:49:04;;;;;;;3.40;0.65;;;23.10;66.90;;;;;;4974317;28;20096;-71
2022/08/13 00:51:32;;;;;;;2.38;1.10;;;23.10;66.80;;;;;;4975318;28;20037;-70
2022/08/13 00:53:59;;;;;;;3.08;1.00;;;23.20;66.50;;;;;;4974519;28;20066;-71
2022/08/13 00:56:26;;;;;;;3.13;0.63;;;23.10;66.70;;;;;;4976971;28;20033;-69
2022/08/13 00:58:53;;;;;;;2.10;0.40;;;23.10;66.60;;;;;;4974354;28;20628;-69
2022/08/13 01:01:25;;;;;;;1.60;0.82;;;23.00;66.90;;;;;;4983133;28;20034;-69
2022/08/13 01:03:51;;;;;;;2.50;0.43;;;23.00;66.90;;;;;;4980224;28;20042;-70
2022/08/13 01:06:20;;;;;;;3.63;1.10;;;23.00;67.20;;;;;;4985135;28;20532;-71
2022/08/13 01:08:46;;;;;;;3.72;0.85;;;22.90;67.40;;;;;;4978429;28;20512;-71
2022/08/13 01:11:13;;;;;;;1.90;0.70;;;22.80;68.00;;;;;;4976496;28;20038;-70
2022/08/13 01:13:42;;;;;;;1.58;0.60;;;22.80;68.30;;;;;;4974408;28;20049;-72
2022/08/13 01:16:13;;;;;;;4.35;0.73;;;22.70;68.00;;;;;;4975718;28;20142;-70
2022/08/13 01:18:45;;;;;;;3.42;0.77;;;22.70;68.40;;;;;;4974991;28;20034;-69
2022/08/13 01:21:15;;;;;;;2.67;1.30;;;22.70;68.30;;;;;;4976482;28;20054;-69
2022/08/13 01:23:45;;;;;;;3.83;0.68;;;22.60;68.30;;;;;;4974149;28;20034;-71
2022/08/13 01:26:13;;;;;;;1.75;0.82;;;22.60;68.80;;;;;;4979610;28;20102;-71
2022/08/13 01:28:40;;;;;;;1.38;0.70;;;22.60;68.40;;;;;;4976084;28;20133;-70
2022/08/13 01:31:06;;;;;;;4.97;0.73;;;22.60;68.20;;;;;;4974850;28;20058;-71
2022/08/13 01:33:36;;;;;;;2.47;0.80;;;22.60;68.50;;;;;;4974478;28;20046;-71
2022/08/13 01:36:04;;;;;;;1.08;0.88;;;22.60;68.40;;;;;;4982233;28;20632;-71
2022/08/13 01:38:30;;;;;;;2.47;1.15;;;22.50;69.20;;;;;;4974873;28;20035;-70
2022/08/13 01:40:56;;;;;;;1.05;0.60;;;22.50;68.80;;;;;;4976747;28;20121;-70
2022/08/13 01:43:22;;;;;;;1.88;0.65;;;22.50;69.40;;;;;;4973334;28;20047;-70
2022/08/13 01:45:49;;;;;;;2.03;0.77;;;22.40;69.60;;;;;;4977222;28;20030;-71
2022/08/13 01:50:59;;;;;;;2.67;0.60;;;22.30;69.60;;;;;;4981324;28;20113;-70
2022/08/13 01:53:25;;;;;;;4.40;1.00;;;22.30;69.40;;;;;;4977327;28;20110;-72
2022/08/13 01:55:54;;;;;;;3.17;0.73;;;22.30;69.60;;;;;;4980840;28;20037;-70
2022/08/13 01:58:22;;;;;;;4.70;1.38;;;22.20;69.30;;;;;;4976162;28;20031;-71
2022/08/13 02:00:53;;;;;;;2.03;0.77;;;22.20;69.30;;;;;;5012152;28;20777;-70
2022/08/13 02:03:20;;;;;;;4.00;0.60;;;22.20;70.00;;;;;;4986226;28;20137;-71
2022/08/13 02:05:48;;;;;;;2.70;0.80;;;22.20;69.40;;;;;;4979896;28;20452;-72
2022/08/13 02:08:18;;;;;;;1.25;0.70;;;22.20;69.40;;;;;;4979097;28;20023;-70
2022/08/13 02:10:46;;;;;;;2.08;0.75;;;22.20;69.30;;;;;;4980473;28;20042;-71
2022/08/13 02:13:32;;;;;;;2.63;0.45;;;22.20;69.40;;;;;;5007733;28;20118;-68
2022/08/13 02:15:57;;;;;;;1.13;0.57;;;22.10;69.30;;;;;;4978878;28;20034;-70
2022/08/13 02:18:26;;;;;;;5.47;1.13;;;22.10;69.30;;;;;;4978024;28;20054;-71
2022/08/13 02:20:55;;;;;;;1.67;0.90;;;22.10;70.00;;;;;;4979845;28;20395;-69
2022/08/13 02:23:25;;;;;;;5.72;0.88;;;22.10;69.40;;;;;;4975584;28;20170;-70
2022/08/13 02:25:51;;;;;;;;;;;22.00;69.40;;;;;;4983606;28;20041;-71
2022/08/13 02:28:21;;;;;;;1.58;0.75;;;22.00;69.70;;;;;;4976800;28;20005;-71
2022/08/13 02:30:49;;;;;;;3.22;0.73;;;22.00;69.50;;;;;;4983847;28;20793;-69
2022/08/13 02:33:15;;;;;;;4.13;0.50;;;22.00;69.60;;;;;;4986482;28;20418;-71
2022/08/13 02:35:45;;;;;;;1.23;0.70;;;22.00;69.70;;;;;;4984088;28;20027;-69
2022/08/13 02:38:11;;;;;;;1.95;0.75;;;21.90;70.10;;;;;;4977390;28;20054;-71
2022/08/13 02:43:26;;;;;;;1.40;0.82;;;21.90;70.30;;;;;;4979815;28;20046;-70
2022/08/13 02:45:56;;;;;;;7.20;0.65;;;21.80;71.20;;;;;;4978134;28;20026;-70
2022/08/13 02:48:24;;;;;;;3.45;0.52;;;21.80;71.40;;;;;;4975929;28;20031;-71
2022/08/13 02:50:51;;;;;;;0.98;0.50;;;21.70;71.70;;;;;;4979495;28;20038;-70
2022/08/13 02:53:19;;;;;;;3.70;1.00;;;21.70;71.40;;;;;;4975281;28;20031;-70
2022/08/13 02:55:47;;;;;;;1.15;0.82;;;21.60;71.10;;;;;;4980050;28;20035;-72
2022/08/13 02:58:16;;;;;;;5.45;1.20;;;21.60;72.30;;;;;;4978971;28;20871;-69
2022/08/13 03:00:48;;;;;;;1.48;0.80;;;21.60;71.80;;;;;;4979935;28;20511;-69
2022/08/13 03:03:16;;;;;;;1.98;0.80;;;21.60;71.60;;;;;;4979044;28;20035;-71
2022/08/13 03:05:41;;;;;;;3.00;1.20;;;21.50;72.30;;;;;;4980127;28;20180;-72
2022/08/13 03:08:07;;;;;;;4.00;1.20;;;21.50;72.00;;;;;;4976208;28;20122;-71
2022/08/13 03:10:33;;;;;;;4.25;0.90;;;21.50;72.40;;;;;;4977241;28;20031;-71
2022/08/13 03:13:04;;;;;;;0.88;0.52;;;21.50;72.30;;;;;;4976961;28;20043;-69
2022/08/13 03:15:31;;;;;;;5.10;0.68;;;21.40;72.70;;;;;;4977719;28;20041;-71
2022/08/13 03:17:57;;;;;;;2.30;0.80;;;21.40;72.40;;;;;;4978128;28;20035;-71
2022/08/13 03:20:23;;;;;;;1.25;0.60;;;21.40;72.20;;;;;;4975394;28;20042;-71
2022/08/13 03:22:57;;;;;;;3.22;0.57;;;21.30;72.30;;;;;;4977723;28;20041;-70
2022/08/13 03:25:26;;;;;;;5.05;0.93;;;21.40;72.20;;;;;;4984940;28;20034;-71
2022/08/13 03:27:52;;;;;;;2.30;0.75;;;21.40;72.10;;;;;;4978871;28;20035;-72
2022/08/13 03:30:21;;;;;;;4.32;1.17;;;21.30;72.30;;;;;;4982195;28;20045;-69
2022/08/13 03:32:48;;;;;;;5.50;1.20;;;21.30;72.10;;;;;;4986000;28;20562;-71
2022/08/13 03:35:16;;;;;;;4.15;0.90;;;21.30;72.50;;;;;;4981078;28;20030;-70
2022/08/13 03:37:53;;;;;;;1.73;0.63;;;21.30;72.30;;;;;;4979214;28;20117;-70
2022/08/13 03:40:18;;;;;;;3.92;1.10;;;21.30;72.90;;;;;;4979206;28;20037;-71
2022/08/13 03:42:48;;;;;;;3.45;0.70;;;21.30;72.20;;;;;;4975083;28;20026;-71
2022/08/13 03:45:15;;;;;;;1.73;0.60;;;21.30;72.90;;;;;;4978475;28;20109;-69
2022/08/13 03:47:41;;;;;;;3.35;0.75;;;21.20;72.80;;;;;;4973976;28;20038;-71
2022/08/13 03:50:09;;;;;;;1.25;0.45;;;21.20;72.70;;;;;;4977033;28;20627;-68
2022/08/13 03:52:35;;;;;;;1.25;0.40;;;21.20;72.50;;;;;;4974671;28;20042;-70
2022/08/13 03:55:04;;;;;;;1.40;0.70;;;21.20;72.50;;;;;;4977922;28;20058;-68
2022/08/13 03:57:30;;;;;;;3.40;0.52;;;21.20;72.40;;;;;;4975944;28;20029;-71
2022/08/13 03:59:57;;;;;;;1.33;0.60;;;21.20;72.50;;;;;;4979396;28;20034;-71
2022/08/13 04:02:23;;;;;;;2.72;0.70;;;21.20;73.10;;;;;;4975068;28;20053;-70
2022/08/13 04:04:50;;;;;;;7.10;0.70;;;21.10;72.50;;;;;;4975731;28;20043;-70
2022/08/13 04:07:17;;;;;;;2.55;0.57;;;21.10;72.70;;;;;;4976320;28;20027;-70
2022/08/13 04:09:44;;;;;;;2.03;0.77;;;21.10;72.60;;;;;;4974697;28;20043;-71
2022/08/13 04:12:12;;;;;;;8.25;0.82;;;21.10;72.70;;;;;;4978373;28;20084;-71
2022/08/13 04:14:42;;;;;;;2.28;0.88;;;21.10;72.80;;;;;;4979982;28;20034;-71
2022/08/13 04:17:10;;;;;;;1.58;0.70;;;21.10;72.90;;;;;;4977031;28;20037;-71
2022/08/13 04:19:40;;;;;;;3.50;0.93;;;21.10;72.80;;;;;;4978578;28;20515;-71
2022/08/13 04:22:07;;;;;;;1.67;0.80;;;21.00;72.70;;;;;;4978745;28;20064;-71
2022/08/13 04:24:33;;;;;;;4.30;0.60;;;21.10;72.90;;;;;;4976700;28;20034;-70
2022/08/13 04:27:00;;;;;;;5.57;0.80;;;21.10;73.10;;;;;;4983917;28;20077;-68
2022/08/13 04:29:26;;;;;;;2.25;0.80;;;21.00;72.90;;;;;;4975500;28;20088;-71
2022/08/13 04:31:52;;;;;;;5.85;0.80;;;21.00;73.00;;;;;;4981979;28;20855;-70
2022/08/13 04:34:20;;;;;;;1.23;0.63;;;21.00;73.10;;;;;;4985224;28;20026;-71
2022/08/13 04:36:46;;;;;;;3.33;0.77;;;21.00;73.10;;;;;;4980233;28;20035;-70
2022/08/13 04:39:12;;;;;;;9.07;0.68;;;21.00;73.10;;;;;;4975396;28;20049;-70
2022/08/13 04:41:37;;;;;;;2.38;0.68;;;20.90;73.10;;;;;;4982611;28;20030;-70
2022/08/13 04:44:03;;;;;;;1.40;0.52;;;20.90;73.20;;;;;;4976259;28;20034;-70
2022/08/13 04:46:29;;;;;;;1.25;0.50;;;21.00;73.10;;;;;;4975077;28;21687;-71
2022/08/13 04:48:55;;;;;;;1.67;0.50;;;20.90;73.10;;;;;;4980851;28;20053;-70
2022/08/13 04:51:20;;;;;;;1.90;0.70;;;20.90;73.20;;;;;;4975411;28;20035;-70
2022/08/13 04:53:46;;;;;;;5.55;1.15;;;20.90;73.60;;;;;;4973584;28;20045;-71
2022/08/13 04:56:12;;;;;;;1.88;0.65;;;20.90;73.50;;;;;;4976722;28;20034;-70
2022/08/13 04:58:38;;;;;;;2.60;0.60;;;20.90;73.40;;;;;;4973845;28;20104;-71
2022/08/13 05:01:09;;;;;;;1.27;0.73;;;20.90;73.20;;;;;;4982954;28;20040;-71
2022/08/13 05:03:39;;;;;;;1.70;0.68;;;20.90;73.40;;;;;;4975811;28;20039;-70
2022/08/13 05:06:07;;;;;;;3.10;0.55;;;21.00;73.40;;;;;;4983006;28;20034;-72
2022/08/13 05:08:34;;;;;;;3.63;0.70;;;21.00;73.40;;;;;;4975859;28;20042;-70
2022/08/13 05:11:00;;;;;;;1.50;0.68;;;21.10;73.10;;;;;;4976972;28;20565;-72
2022/08/13 05:13:27;;;;;;;3.78;0.50;;;21.00;73.40;;;;;;4973468;28;20038;-72
2022/08/13 05:15:58;;;;;;;0.95;0.47;;;21.00;73.30;;;;;;4975529;28;20500;-70
2022/08/13 05:18:26;;;;;;;6.90;0.85;;;21.00;73.30;;;;;;4975186;28;20117;-72
2022/08/13 05:20:53;;;;;;;2.70;0.82;;;21.00;73.60;;;;;;4976580;28;20047;-72
2022/08/13 05:23:23;;;;;;;1.77;0.70;;;21.00;73.20;;;;;;4976821;28;20124;-72
2022/08/13 05:25:50;;;;;;;0.93;0.50;;;21.00;73.40;;;;;;4986729;28;20042;-71
2022/08/13 05:28:18;;;;;;;3.95;0.60;;;21.00;73.00;;;;;;4980405;28;20461;-70
2022/08/13 05:30:46;;;;;;;1.60;0.80;;;21.10;72.90;;;;;;4977261;28;20538;-72
2022/08/13 05:33:21;;;;;;;1.30;0.45;;;21.10;72.90;;;;;;4979346;28;20041;-70
2022/08/13 05:35:53;;;;;;;2.97;0.70;;;21.20;72.80;;;;;;4979441;28;20403;-71
2022/08/13 05:38:22;;;;;;;1.58;0.60;;;21.20;73.00;;;;;;4979738;28;20159;-72
2022/08/13 05:40:52;;;;;;;4.35;1.15;;;21.20;72.90;;;;;;4983630;28;20039;-70
2022/08/13 05:43:19;;;;;;;2.78;0.65;;;21.30;72.90;;;;;;4979046;28;20018;-71
2022/08/13 05:45:59;;;;;;;2.05;0.73;;;21.30;72.80;;;;;;4978753;28;20479;-72
2022/08/13 05:48:30;;;;;;;1.45;0.60;;;21.40;72.70;;;;;;4976981;28;20054;-72
2022/08/13 05:51:01;;;;;;;1.88;0.60;;;21.50;72.70;;;;;;4978776;28;20034;-69
2022/08/13 05:53:27;;;;;;;;;;;21.50;72.60;;;;;;4977936;28;20049;-72
2022/08/13 05:55:54;;;;;;;2.70;0.43;;;21.60;72.30;;;;;;4978086;28;20014;-70
2022/08/13 05:58:20;;;;;;;4.72;0.63;;;21.60;72.60;;;;;;4977768;28;20054;-70
2022/08/13 06:03:31;;;;;;;4.20;0.75;;;21.80;72.20;;;;;;4980284;28;20093;-71
2022/08/13 06:06:06;;;;;;;1.25;0.47;;;21.90;72.40;;;;;;4978269;28;20506;-72
2022/08/13 06:08:38;;;;;;;2.97;1.05;;;22.00;72.70;;;;;;4980279;28;20534;-69
2022/08/13 06:11:06;;;;;;;1.90;0.60;;;22.00;72.60;;;;;;4981376;28;20110;-72
2022/08/13 06:13:35;;;;;;;2.35;0.60;;;22.20;72.00;;;;;;4980050;28;20038;-72
2022/08/13 06:16:03;;;;;;;4.53;1.00;;;22.30;71.20;;;;;;4983491;28;20050;-72
2022/08/13 06:18:34;;;;;;;3.85;0.68;;;22.40;71.30;;;;;;4984065;28;20026;-71
2022/08/13 06:21:02;;;;;;;3.50;0.60;;;22.60;70.80;;;;;;4984731;28;20426;-71
2022/08/13 06:23:30;;;;;;;3.08;0.50;;;22.70;71.00;;;;;;4980080;28;20035;-71
2022/08/13 06:25:57;;;;;;;3.67;0.70;;;22.90;70.70;;;;;;4984719;28;20368;-71
2022/08/13 06:28:26;;;;;;;3.80;0.63;;;23.00;70.70;;;;;;4977610;28;20475;-69
2022/08/13 06:30:53;;;;;;;0.60;0.50;;;23.20;70.40;;;;;;4977604;28;20761;-71
2022/08/13 06:33:22;;;;;;;6.63;0.77;;;23.40;70.10;;;;;;4976796;28;20031;-71
2022/08/13 06:35:52;;;;;;;2.28;0.50;;;23.70;69.30;;;;;;4977298;28;20034;-69
2022/08/13 06:38:20;;;;;;;1.52;0.63;;;24.00;70.20;;;;;;4977838;28;20026;-71
2022/08/13 06:40:46;;;;;;;1.23;0.52;;;24.50;68.20;;;;;;4982151;28;20644;-71
2022/08/13 06:43:18;;;;;;;1.13;0.43;;;25.00;66.60;;;;;;4976597;28;20061;-72
2022/08/13 06:45:45;;;;;;;2.58;0.40;;;25.70;66.20;;;;;;4978138;28;20039;-71
2022/08/13 06:48:11;;;;;;;2.78;0.77;;;26.30;65.90;;;;;;4978494;28;20085;-73
2022/08/13 06:50:37;;;;;;;2.08;0.60;;;27.00;65.00;;;;;;4977368;28;20117;-72
2022/08/13 06:53:11;;;;;;;1.70;0.43;;;27.90;62.70;;;;;;4977938;28;20144;-71
2022/08/13 06:55:39;;;;;;;2.60;0.40;;;28.40;63.80;;;;;;4976600;28;20030;-72
2022/08/13 06:58:09;;;;;;;0.65;0.55;;;29.20;61.20;;;;;;4979148;28;20066;-72
2022/08/13 07:00:38;;;;;;;3.30;0.80;;;30.00;59.80;;;;;;4974808;28;20066;-71
2022/08/13 07:03:07;;;;;;;5.25;0.82;;;30.60;58.90;;;;;;4978432;28;20037;-73
2022/08/13 07:05:40;;;;;;;2.33;0.73;;;31.20;59.40;;;;;;4978905;28;20042;-71
2022/08/13 07:08:09;;;;;;;1.95;0.60;;;31.40;57.40;;;;;;4975456;28;20511;-71
2022/08/13 07:10:36;;;;;;;6.65;0.77;;;31.60;57.90;;;;;;4976749;28;20104;-71
2022/08/13 07:13:05;;;;;;;7.13;1.90;;;32.10;57.30;;;;;;4980984;28;20054;-73
2022/08/13 07:15:31;;;;;;;3.22;0.75;;;32.40;55.80;;;;;;4979761;28;20042;-71
2022/08/13 07:17:58;;;;;;;1.88;0.82;;;32.70;56.40;;;;;;4980766;28;20368;-72
2022/08/13 07:20:24;;;;;;;1.35;0.55;;;33.30;57.20;;;;;;4985403;28;20155;-72
2022/08/13 07:22:53;;;;;;;3.95;0.90;;;33.60;55.80;;;;;;4983869;28;20037;-70
2022/08/13 07:25:24;;;;;;;2.33;1.10;;;33.40;54.50;;;;;;4984608;28;20145;-69
2022/08/13 07:27:51;;;;;;;0.80;0.52;;;33.00;56.50;;;;;;4984261;28;20475;-70
2022/08/13 07:30:18;;;;;;;4.40;1.10;;;32.40;55.30;;;;;;4984304;28;20026;-71
2022/08/13 07:32:45;;;;;;;1.90;0.52;;;31.90;56.10;;;;;;4984364;28;20030;-72
2022/08/13 07:35:11;;;;;;;1.45;0.65;;;31.20;56.30;;;;;;4985016;28;20050;-72
2022/08/13 07:37:39;;;;;;;2.33;0.30;;;30.10;57.20;;;;;;4984236;28;20398;-70
2022/08/13 07:40:08;;;;;;;6.50;0.82;;;29.50;58.60;;;;;;4984885;28;20027;-71
2022/08/13 07:42:38;;;;;;;2.73;0.70;;;28.80;59.20;;;;;;4983257;28;20470;-71
2022/08/13 07:45:05;;;;;;;0.93;0.38;;;28.40;59.90;;;;;;4984720;28;20038;-70
2022/08/13 07:47:31;;;;;;;1.77;0.40;;;28.00;60.40;;;;;;4986477;28;20029;-71
2022/08/13 07:50:01;;;;;;;0.85;0.32;;;27.70;61.30;;;;;;4987342;28;20045;-68
2022/08/13 07:52:28;;;;;;;0.88;0.68;;;27.30;62.70;;;;;;4981938;28;20041;-70
2022/08/13 07:54:54;;;;;;;3.53;1.13;;;27.10;62.80;;;;;;4985598;28;20072;-70
2022/08/13 07:57:20;;;;;;;11.63;0.60;;;27.10;63.00;;;;;;4985115;28;20049;-69
2022/08/13 07:59:48;;;;;;;4.03;0.65;;;27.00;63.80;;;;;;4983949;28;20513;-70
2022/08/13 08:02:14;;;;;;;2.40;0.60;;;27.00;63.70;;;;;;4985557;28;20491;-70
2022/08/13 08:04:41;;;;;;;2.53;0.50;;;27.00;63.40;;;;;;4983885;28;20556;-71
2022/08/13 08:07:08;;;;;;;1.25;0.60;;;27.10;63.60;;;;;;4983698;28;20042;-71
2022/08/13 08:09:35;;;;;;;3.85;0.80;;;27.20;63.80;;;;;;4986598;28;20034;-73
2022/08/13 08:14:47;;;;;;;2.00;0.73;;;27.20;63.70;;;;;;4973389;28;20094;-72
2022/08/13 08:17:13;;;;;;;3.72;0.50;;;27.20;65.50;;;;;;4977556;28;20042;-71
2022/08/13 08:19:40;;;;;;;4.78;0.32;;;27.30;64.00;;;;;;4972396;28;20038;-71
2022/08/13 08:22:07;;;;;;;4.25;0.93;;;27.40;63.30;;;;;;4973053;28;20046;-71
2022/08/13 08:24:34;;;;;;;1.75;0.40;;;27.40;63.10;;;;;;4974777;28;20058;-71
2022/08/13 08:27:03;;;;;;;2.30;0.82;;;27.40;62.90;;;;;;4977560;28;20043;-69
2022/08/13 08:29:31;;;;;;;1.35;0.38;;;27.40;64.10;;;;;;4976036;28;20030;-70
2022/08/13 08:31:59;;;;;;;2.42;0.75;;;27.40;63.80;;;;;;4974597;28;20039;-72
2022/08/13 08:34:25;;;;;;;1.30;0.45;;;27.40;63.20;;;;;;4976893;28;20034;-71
2022/08/13 08:36:53;;;;;;;4.50;0.70;;;27.50;63.20;;;;;;4976527;28;20035;-69
2022/08/13 08:44:49;;;;;;;1.27;0.35;;;27.70;60.30;;;;;;4974381;28;20081;-70
2022/08/13 08:47:15;;;;;;;1.00;0.50;;;27.70;61.10;;;;;;4975582;28;20562;-70
2022/08/13 08:49:43;;;;;;;2.60;0.30;;;27.90;62.00;;;;;;4973519;28;20121;-71
2022/08/13 08:52:09;;;;;;;1.48;0.50;;;27.90;62.30;;;;;;4979073;28;20038;-71
2022/08/13 08:54:38;;;;;;;2.55;0.60;;;27.90;61.50;;;;;;4974803;28;20039;-70
2022/08/13 08:57:04;;;;;;;0.40;0.20;;;28.00;61.00;;;;;;4975423;28;20026;-69
2022/08/13 08:59:41;;;;;;;0.57;0.40;;;28.20;60.40;;;;;;4973676;28;20122;-73
2022/08/13 09:02:18;;;;;;;1.70;0.57;;;28.20;61.40;;;;;;4975872;28;20084;-69
2022/08/13 09:04:46;;;;;;;4.82;0.70;;;28.30;61.10;;;;;;4974548;28;20137;-71
2022/08/13 09:07:12;;;;;;;1.35;0.52;;;28.20;61.10;;;;;;4977175;28;20074;-71
2022/08/13 09:09:38;;;;;;;1.95;0.50;;;28.40;60.90;;;;;;4984804;28;20518;-70
2022/08/13 09:12:07;;;;;;;1.80;0.50;;;28.40;62.30;;;;;;4978077;28;20118;-71
2022/08/13 09:14:32;;;;;;;0.98;0.50;;;28.40;61.40;;;;;;4975127;28;20483;-72
2022/08/13 09:17:01;;;;;;;1.83;0.50;;;28.50;62.00;;;;;;4974645;28;20039;-71
2022/08/13 09:19:27;;;;;;;0.77;0.30;;;28.50;62.10;;;;;;5007698;28;20047;-71
2022/08/13 09:21:52;;;;;;;3.22;0.68;;;28.60;63.30;;;;;;4975901;28;20070;-70
2022/08/13 09:24:24;;;;;;;0.77;0.30;;;28.70;61.00;;;;;;4977897;28;20086;-70
2022/08/13 09:26:51;;;;;;;1.27;0.70;;;28.80;61.10;;;;;;4976992;28;20050;-70
2022/08/13 09:29:18;;;;;;;1.70;0.65;;;28.90;60.20;;;;;;4974081;28;20030;-67
2022/08/13 09:31:47;;;;;;;2.47;0.93;;;28.90;62.30;;;;;;5004271;28;20411;-70
2022/08/13 09:34:13;;;;;;;0.30;0.23;;;29.00;62.50;;;;;;4974030;28;20623;-69
2022/08/13 09:36:40;;;;;;;4.15;0.60;;;29.20;60.80;;;;;;4973786;28;20272;-70
2022/08/13 09:39:06;;;;;;;0.82;0.30;;;29.30;59.40;;;;;;4976084;28;20497;-71
2022/08/13 09:41:37;;;;;;;2.85;0.40;;;29.30;61.10;;;;;;4977814;28;20119;-70
2022/08/13 09:44:04;;;;;;;4.28;0.52;;;29.30;62.30;;;;;;4973942;28;20410;-68
2022/08/13 09:46:31;;;;;;;2.22;0.45;;;29.50;59.70;;;;;;4975400;28;20399;-72
2022/08/13 09:48:58;;;;;;;0.82;0.38;;;29.50;59.20;;;;;;4981142;28;20045;-71
2022/08/13 09:51:24;;;;;;;1.92;0.35;;;29.50;59.50;;;;;;4974420;28;20158;-69
2022/08/13 09:53:51;;;;;;;1.27;0.35;;;29.70;58.30;;;;;;4971606;28;20043;-70
2022/08/13 09:56:17;;;;;;;2.20;0.50;;;29.80;59.10;;;;;;4978548;28;20514;-70
2022/08/13 09:58:50;;;;;;;1.83;0.68;;;29.80;58.60;;;;;;4975027;28;20053;-71
2022/08/13 10:01:17;;;;;;;1.75;0.20;;;29.90;58.40;;;;;;4972686;28;20507;-71
2022/08/13 10:03:43;;;;;;;1.90;0.22;;;29.90;58.10;;;;;;4975145;28;20100;-71
2022/08/13 10:06:09;;;;;;;0.63;0.30;;;29.90;58.30;;;;;;4980752;28;20637;-69
2022/08/13 10:08:35;;;;;;;2.28;0.32;;;30.00;58.10;;;;;;4977265;28;20045;-72
2022/08/13 10:11:01;;;;;;;0.93;0.40;;;30.10;59.20;;;;;;4978495;28;20026;-70
2022/08/13 10:13:28;;;;;;;2.05;0.30;;;30.10;59.50;;;;;;4974759;28;20035;-70
2022/08/13 10:15:54;;;;;;;5.10;0.50;;;30.10;58.70;;;;;;4976922;28;20104;-70
2022/08/13 10:18:19;;;;;;;2.90;0.40;;;30.20;59.40;;;;;;4976682;28;20876;-70
2022/08/13 10:20:45;;;;;;;2.20;0.90;;;30.30;59.50;;;;;;4978815;28;20033;-71
2022/08/13 10:23:13;;;;;;;0.43;0.20;;;30.50;56.80;;;;;;4976026;28;20268;-70
2022/08/13 10:25:41;;;;;;;2.05;0.85;;;30.50;58.20;;;;;;4981228;28;20034;-68
2022/08/13 10:28:37;;;;;;;4.57;0.40;;;30.60;58.50;;;;;;4977632;28;20487;-71
2022/08/13 10:31:08;;;;;;;1.92;0.47;;;30.60;58.50;;;;;;4980235;28;20049;-70
2022/08/13 10:33:37;;;;;;;1.48;0.45;;;30.70;58.20;;;;;;4977763;28;20090;-69
2022/08/13 10:36:07;;;;;;;1.00;0.40;;;30.70;58.60;;;;;;4978727;28;20449;-72
2022/08/13 10:38:33;;;;;;;1.05;0.17;;;30.70;56.90;;;;;;4976557;28;20034;-70
2022/08/13 10:41:07;;;;;;;0.75;0.38;;;30.80;56.70;;;;;;4982395;28;20642;-71
2022/08/13 10:43:38;;;;;;;0.93;0.45;;;30.70;56.60;;;;;;4973224;28;20046;-70
2022/08/13 10:46:04;;;;;;;0.73;0.22;;;30.70;58.10;;;;;;5001225;28;20038;-71
2022/08/13 10:48:30;;;;;;;1.60;0.40;;;30.80;56.50;;;;;;4978469;28;20037;-70
2022/08/13 10:50:56;;;;;;;0.40;0.30;;;30.80;57.20;;;;;;5010458;28;20109;-69
2022/08/13 10:56:08;;;;;;;2.90;0.55;;;30.80;56.60;;;;;;4976640;28;20057;-69
2022/08/13 10:58:33;;;;;;;1.02;0.10;;;30.80;55.50;;;;;;4977553;28;20038;-71
2022/08/13 11:01:03;;;;;;;1.65;0.43;;;30.80;56.30;;;;;;4976499;28;20038;-71
2022/08/13 11:03:30;;;;;;;;;;;30.80;55.60;;;;;;4979818;28;20038;-71
2022/08/13 11:05:59;;;;;;;1.08;0.30;;;30.80;56.10;;;;;;4977691;28;19921;-71
2022/08/13 11:08:26;;;;;;;4.37;0.67;;;30.80;56.70;;;;;;4977822;28;20026;-71
2022/08/13 11:10:51;;;;;;;2.60;0.30;;;30.90;57.60;;;;;;4976115;28;20760;-68
2022/08/13 11:13:17;;;;;;;0.45;0.20;;;31.00;55.40;;;;;;4978129;28;20034;-71
2022/08/13 11:15:42;;;;;;;1.25;0.45;;;30.90;54.80;;;;;;4976546;28;20113;-70
2022/08/13 11:18:09;;;;;;;1.85;0.63;;;31.00;54.30;;;;;;4974555;28;20086;-69
2022/08/13 11:21:02;;;;;;;2.60;0.50;;;30.90;54.80;;;;;;4983878;28;20049;-71
2022/08/13 11:23:20;;;;;;;1.80;0.38;;;30.90;55.60;;;;;;4978586;28;20027;-70
2022/08/13 11:25:46;;;;;;;0.90;0.40;;;30.90;55.90;;;;;;4979304;28;20113;-70
2022/08/13 11:28:13;;;;;;;1.27;0.30;;;31.00;55.00;;;;;;4974429;28;20031;-70
2022/08/13 11:30:38;;;;;;;1.10;0.32;;;30.90;55.40;;;;;;4977494;28;20040;-71
2022/08/13 11:33:05;;;;;;;1.38;0.45;;;30.90;55.70;;;;;;4975678;28;20030;-71
2022/08/13 11:35:30;;;;;;;1.58;0.43;;;31.00;54.60;;;;;;4975082;28;20046;-69
2022/08/13 11:37:56;;;;;;;3.30;0.65;;;30.90;54.50;;;;;;4976704;28;20030;-71
2022/08/13 11:40:22;;;;;;;3.70;0.63;;;30.80;55.50;;;;;;4984890;28;20528;-70
2022/08/13 11:42:49;;;;;;;3.90;0.60;;;30.80;56.20;;;;;;4973436;28;20082;-70
2022/08/13 11:45:14;;;;;;;1.38;0.40;;;30.90;54.50;;;;;;4977104;28;20125;-69
2022/08/13 11:47:40;;;;;;;3.75;0.40;;;30.90;55.20;;;;;;4985609;28;20487;-70
2022/08/13 11:50:06;;;;;;;4.10;0.90;;;30.80;56.00;;;;;;4976497;28;20534;-71
2022/08/13 11:52:32;;;;;;;1.75;0.60;;;30.80;56.00;;;;;;4972075;28;20045;-70
2022/08/13 11:54:58;;;;;;;1.45;0.43;;;30.80;55.30;;;;;;4976945;28;20053;-70
2022/08/13 11:57:23;;;;;;;2.35;0.38;;;30.80;54.70;;;;;;5006473;28;20042;-71
2022/08/13 11:59:49;;;;;;;0.75;0.30;;;30.80;54.70;;;;;;4981633;28;20043;-71
2022/08/13 12:02:15;;;;;;;3.15;0.57;;;30.70;56.60;;;;;;4977527;28;20046;-70
2022/08/13 12:04:40;;;;;;;1.27;0.40;;;30.60;55.60;;;;;;4974113;28;20066;-71
2022/08/13 12:07:06;;;;;;;1.08;0.40;;;30.60;56.30;;;;;;4978472;28;20038;-70
2022/08/13 12:09:31;;;;;;;3.60;0.60;;;30.60;54.10;;;;;;4974560;28;20609;-69
2022/08/13 12:11:57;;;;;;;1.08;0.22;;;30.60;54.70;;;;;;4976117;28;20066;-69
2022/08/13 12:14:23;;;;;;;0.88;0.40;;;30.60;54.10;;;;;;5007017;28;20057;-70
2022/08/13 12:16:48;;;;;;;0.77;0.30;;;30.60;55.20;;;;;;4974901;28;20507;-70
2022/08/13 12:19:14;;;;;;;1.95;0.47;;;30.60;54.60;;;;;;4983137;28;20049;-69
2022/08/13 12:21:40;;;;;;;0.95;0.38;;;30.60;55.10;;;;;;4973725;28;20051;-71
2022/08/13 12:24:05;;;;;;;5.68;0.40;;;30.50;55.00;;;;;;4975147;28;20035;-71
2022/08/13 12:26:31;;;;;;;5.18;1.20;;;30.40;55.00;;;;;;4981462;28;20045;-69
2022/08/13 12:28:57;;;;;;;1.50;0.38;;;30.30;55.70;;;;;;4976374;28;20118;-71
2022/08/13 12:31:22;;;;;;;1.05;0.40;;;30.20;56.30;;;;;;4975187;28;20066;-70
2022/08/13 12:33:48;;;;;;;0.47;0.30;;;30.10;54.90;;;;;;4973676;28;20118;-71
2022/08/13 12:36:13;;;;;;;1.48;0.40;;;30.10;55.20;;;;;;5011912;28;20026;-69
2022/08/13 12:38:39;;;;;;;0.68;0.30;;;30.10;54.60;;;;;;4976853;28;20202;-70
2022/08/13 12:41:05;;;;;;;0.40;0.35;;;30.10;55.20;;;;;;4982170;28;20037;-70
2022/08/13 12:43:30;;;;;;;4.63;0.45;;;30.00;55.30;;;;;;5004009;28;20085;-69
2022/08/13 12:45:57;;;;;;;3.05;0.68;;;30.00;55.90;;;;;;4978100;28;20035;-68
2022/08/13 12:48:29;;;;;;;1.92;0.25;;;30.00;56.30;;;;;;4975040;28;20049;-70
2022/08/13 12:50:55;;;;;;;2.65;0.20;;;30.00;56.40;;;;;;4973532;28;20038;-67
2022/08/13 12:53:20;;;;;;;3.90;0.75;;;30.10;53.80;;;;;;4974891;28;20031;-71
2022/08/13 12:55:46;;;;;;;1.05;0.30;;;30.00;53.70;;;;;;4978544;28;20049;-70
2022/08/13 12:58:20;;;;;;;0.25;0.22;;;30.00;53.20;;;;;;4976855;28;21135;-69
2022/08/13 13:00:48;;;;;;;2.20;0.10;;;30.00;51.70;;;;;;4974042;28;20031;-69
2022/08/13 13:03:14;;;;;;;3.83;0.40;;;30.00;53.70;;;;;;4975336;28;20073;-70
2022/08/13 13:05:42;;;;;;;3.03;0.35;;;30.00;54.10;;;;;;4973338;28;20027;-71
2022/08/13 13:08:33;;;;;;;4.35;0.30;;;30.00;53.40;;;;;;4976453;28;20027;-72
2022/08/13 13:11:04;;;;;;;0.32;0.10;;;30.00;53.40;;;;;;4975451;28;20074;-70
2022/08/13 13:13:32;;;;;;;1.60;0.20;;;29.90;53.50;;;;;;4973448;28;20027;-69
2022/08/13 13:15:57;;;;;;;0.47;0.10;;;29.90;53.10;;;;;;4978361;28;20069;-69